Accueil
METAR-TAF:

METAR-TAF

Aéroports :

Aéroport international de Rarotonga

Rarotonga, Îles Cook

latitude: 21-12S, longitude: 159-49W, altitude: 7 m

Observation

Le bulletin a été fait il y a 36 minutes, à 17:30 UTC
Vent 8 kt de est
Température 24°C
Humidité 78%
Pression 1018 hPa
Visibilité 10 km ou plus

METAR: NCRG 191730Z AUTO 09008KT 9999 SCT026/// SCT034/// 24/20 Q1018

Heure: 08:06 (18:06 UTC)

Prévision

Le bulletin a été fait il y a 44 minutes, à 17:22 UTC
Prévision valable du 19 à 18 UTC au 20 à 18 UTC
Vent 9 kt de est
Visibilité 10 km ou plus
Quelques nuages à une hauteur de 2800 ft
Nuages épars à une hauteur de 4000 ft
Probabilité 40% :
Temporairement
du 19 à 20 UTC au 20 à 06 UTC
Vent 15 kt de est avec des rafales jusqu'à 25 kt

TAF: NCRG 191722Z 1918/2018 10009KT 9999 FEW028 SCT040 PROB40 TEMPO 1920/2006 10015G25KT

Observations et prévisions météorologiques de plus de 4000 aéroports (messages METAR et TAF).

Les stations disponibles sont représentées par des disques jaunes et rouges sur la carte.

Passer la souris dessus pour voir le nom de la station.

Cliquer dessus pour voir les observations et prévisions météorologiques.

Pour changer de carte: cliquez sur les boutons verts avec une croix noire pour zoomer, sur le bouton vert avec un tiret pour effectuer un zoom arrière, ou sur les flèches vertes pour les cartes adjacentes.


METAR-TAF: